sensor_id;sensor_type;location;lat;lon;timestamp;P1;durP1;ratioP1;P2;durP2;ratioP2
15553;SDS011;7878;44.632;10.942;2023-08-06T00:00:25;1.92;;;0.90;;
15553;SDS011;7878;44.632;10.942;2023-08-06T00:02:51;1.17;;;1.10;;
15553;SDS011;7878;44.632;10.942;2023-08-06T00:05:16;1.10;;;0.90;;
15553;SDS011;7878;44.632;10.942;2023-08-06T00:07:48;4.60;;;1.10;;
15553;SDS011;7878;44.632;10.942;2023-08-06T00:10:14;2.60;;;1.00;;
15553;SDS011;7878;44.632;10.942;2023-08-06T00:12:39;2.65;;;1.02;;
15553;SDS011;7878;44.632;10.942;2023-08-06T00:15:05;2.72;;;1.20;;
15553;SDS011;7878;44.632;10.942;2023-08-06T00:17:31;1.50;;;1.00;;
15553;SDS011;7878;44.632;10.942;2023-08-06T00:19:58;2.63;;;0.90;;
15553;SDS011;7878;44.632;10.942;2023-08-06T00:22:29;1.30;;;1.00;;
15553;SDS011;7878;44.632;10.942;2023-08-06T00:24:55;0.90;;;0.85;;
15553;SDS011;7878;44.632;10.942;2023-08-06T00:27:22;1.80;;;0.90;;
15553;SDS011;7878;44.632;10.942;2023-08-06T00:29:48;1.77;;;1.00;;
15553;SDS011;7878;44.632;10.942;2023-08-06T00:32:14;2.25;;;1.00;;
15553;SDS011;7878;44.632;10.942;2023-08-06T00:34:39;4.30;;;1.20;;
15553;SDS011;7878;44.632;10.942;2023-08-06T00:37:05;2.13;;;0.93;;
15553;SDS011;7878;44.632;10.942;2023-08-06T00:39:31;0.95;;;0.80;;
15553;SDS011;7878;44.632;10.942;2023-08-06T00:41:56;1.20;;;0.90;;
15553;SDS011;7878;44.632;10.942;2023-08-06T00:44:23;3.88;;;0.80;;
15553;SDS011;7878;44.632;10.942;2023-08-06T00:46:49;1.17;;;0.80;;
15553;SDS011;7878;44.632;10.942;2023-08-06T00:49:15;0.80;;;0.80;;
15553;SDS011;7878;44.632;10.942;2023-08-06T00:51:41;3.35;;;0.68;;
15553;SDS011;7878;44.632;10.942;2023-08-06T00:54:08;1.45;;;0.80;;
15553;SDS011;7878;44.632;10.942;2023-08-06T00:56:34;2.20;;;0.80;;
15553;SDS011;7878;44.632;10.942;2023-08-06T00:59:01;3.78;;;0.75;;
15553;SDS011;7878;44.632;10.942;2023-08-06T01:01:26;1.30;;;0.70;;
15553;SDS011;7878;44.632;10.942;2023-08-06T01:03:53;1.15;;;0.68;;
15553;SDS011;7878;44.632;10.942;2023-08-06T01:06:19;0.70;;;0.70;;
15553;SDS011;7878;44.632;10.942;2023-08-06T01:09:00;0.82;;;0.60;;
15553;SDS011;7878;44.632;10.942;2023-08-06T01:11:40;3.72;;;0.80;;
15553;SDS011;7878;44.632;10.942;2023-08-06T01:14:23;2.92;;;0.80;;
15553;SDS011;7878;44.632;10.942;2023-08-06T01:16:58;2.22;;;0.60;;
15553;SDS011;7878;44.632;10.942;2023-08-06T01:19:26;4.32;;;0.75;;
15553;SDS011;7878;44.632;10.942;2023-08-06T01:21:52;2.88;;;0.90;;
15553;SDS011;7878;44.632;10.942;2023-08-06T01:24:17;2.00;;;0.75;;
15553;SDS011;7878;44.632;10.942;2023-08-06T01:26:55;7.10;;;0.77;;
15553;SDS011;7878;44.632;10.942;2023-08-06T01:29:39;4.82;;;0.85;;
15553;SDS011;7878;44.632;10.942;2023-08-06T01:32:09;0.88;;;0.60;;
15553;SDS011;7878;44.632;10.942;2023-08-06T01:34:36;2.45;;;0.50;;
15553;SDS011;7878;44.632;10.942;2023-08-06T01:37:07;4.13;;;0.90;;
15553;SDS011;7878;44.632;10.942;2023-08-06T01:39:33;0.52;;;0.52;;
15553;SDS011;7878;44.632;10.942;2023-08-06T01:41:59;2.03;;;0.75;;
15553;SDS011;7878;44.632;10.942;2023-08-06T01:44:24;0.90;;;0.60;;
15553;SDS011;7878;44.632;10.942;2023-08-06T01:46:50;0.88;;;0.73;;
15553;SDS011;7878;44.632;10.942;2023-08-06T01:49:16;0.80;;;0.60;;
15553;SDS011;7878;44.632;10.942;2023-08-06T01:51:42;0.70;;;0.70;;
15553;SDS011;7878;44.632;10.942;2023-08-06T01:54:07;2.63;;;0.70;;
15553;SDS011;7878;44.632;10.942;2023-08-06T01:56:33;0.73;;;0.73;;
15553;SDS011;7878;44.632;10.942;2023-08-06T01:58:59;2.95;;;0.80;;
15553;SDS011;7878;44.632;10.942;2023-08-06T02:01:24;0.65;;;0.65;;
15553;SDS011;7878;44.632;10.942;2023-08-06T02:03:50;0.70;;;0.70;;
15553;SDS011;7878;44.632;10.942;2023-08-06T02:06:15;0.95;;;0.68;;
15553;SDS011;7878;44.632;10.942;2023-08-06T02:08:41;3.35;;;0.80;;
15553;SDS011;7878;44.632;10.942;2023-08-06T02:11:07;5.75;;;1.33;;
15553;SDS011;7878;44.632;10.942;2023-08-06T02:13:32;1.30;;;0.50;;
15553;SDS011;7878;44.632;10.942;2023-08-06T02:15:58;0.50;;;0.50;;
15553;SDS011;7878;44.632;10.942;2023-08-06T02:18:24;3.22;;;0.70;;
15553;SDS011;7878;44.632;10.942;2023-08-06T02:20:59;1.13;;;0.80;;
15553;SDS011;7878;44.632;10.942;2023-08-06T02:23:25;4.72;;;0.80;;
15553;SDS011;7878;44.632;10.942;2023-08-06T02:26:03;1.35;;;0.73;;
15553;SDS011;7878;44.632;10.942;2023-08-06T02:28:30;1.48;;;0.70;;
15553;SDS011;7878;44.632;10.942;2023-08-06T02:30:56;1.67;;;0.95;;
15553;SDS011;7878;44.632;10.942;2023-08-06T02:33:22;1.73;;;0.70;;
15553;SDS011;7878;44.632;10.942;2023-08-06T02:35:47;1.13;;;0.75;;
15553;SDS011;7878;44.632;10.942;2023-08-06T02:38:13;1.13;;;0.70;;
15553;SDS011;7878;44.632;10.942;2023-08-06T02:40:45;0.85;;;0.60;;
15553;SDS011;7878;44.632;10.942;2023-08-06T02:43:11;1.23;;;0.80;;
15553;SDS011;7878;44.632;10.942;2023-08-06T02:45:37;3.10;;;0.93;;
15553;SDS011;7878;44.632;10.942;2023-08-06T02:48:03;4.45;;;1.00;;
15553;SDS011;7878;44.632;10.942;2023-08-06T02:50:29;0.82;;;0.60;;
15553;SDS011;7878;44.632;10.942;2023-08-06T02:52:55;1.73;;;0.70;;
15553;SDS011;7878;44.632;10.942;2023-08-06T02:55:20;1.27;;;0.85;;
15553;SDS011;7878;44.632;10.942;2023-08-06T02:57:46;0.70;;;0.70;;
15553;SDS011;7878;44.632;10.942;2023-08-06T03:00:12;2.63;;;0.73;;
15553;SDS011;7878;44.632;10.942;2023-08-06T03:02:37;2.03;;;0.80;;
15553;SDS011;7878;44.632;10.942;2023-08-06T03:05:03;1.83;;;0.80;;
15553;SDS011;7878;44.632;10.942;2023-08-06T03:07:31;2.22;;;1.10;;
15553;SDS011;7878;44.632;10.942;2023-08-06T03:09:58;2.15;;;0.70;;
15553;SDS011;7878;44.632;10.942;2023-08-06T03:12:26;3.92;;;0.80;;
15553;SDS011;7878;44.632;10.942;2023-08-06T03:14:51;2.33;;;0.80;;
15553;SDS011;7878;44.632;10.942;2023-08-06T03:17:17;2.22;;;0.75;;
15553;SDS011;7878;44.632;10.942;2023-08-06T03:19:42;0.80;;;0.80;;
15553;SDS011;7878;44.632;10.942;2023-08-06T03:22:08;3.13;;;0.80;;
15553;SDS011;7878;44.632;10.942;2023-08-06T03:24:34;1.80;;;0.80;;
15553;SDS011;7878;44.632;10.942;2023-08-06T03:26:59;1.92;;;0.93;;
15553;SDS011;7878;44.632;10.942;2023-08-06T03:29:25;2.47;;;0.80;;
15553;SDS011;7878;44.632;10.942;2023-08-06T03:31:51;4.68;;;1.00;;
15553;SDS011;7878;44.632;10.942;2023-08-06T03:34:17;2.30;;;0.93;;
15553;SDS011;7878;44.632;10.942;2023-08-06T03:36:43;2.95;;;0.90;;
15553;SDS011;7878;44.632;10.942;2023-08-06T03:39:08;2.67;;;0.65;;
15553;SDS011;7878;44.632;10.942;2023-08-06T03:41:34;2.90;;;0.70;;
15553;SDS011;7878;44.632;10.942;2023-08-06T03:44:00;2.58;;;0.95;;
15553;SDS011;7878;44.632;10.942;2023-08-06T03:46:28;6.88;;;0.90;;
15553;SDS011;7878;44.632;10.942;2023-08-06T03:48:54;2.78;;;0.90;;
15553;SDS011;7878;44.632;10.942;2023-08-06T03:51:22;1.08;;;0.73;;
15553;SDS011;7878;44.632;10.942;2023-08-06T03:53:47;0.88;;;0.80;;
15553;SDS011;7878;44.632;10.942;2023-08-06T03:56:13;2.20;;;0.90;;
15553;SDS011;7878;44.632;10.942;2023-08-06T03:58:38;3.30;;;1.05;;
15553;SDS011;7878;44.632;10.942;2023-08-06T04:01:04;2.03;;;0.95;;
15553;SDS011;7878;44.632;10.942;2023-08-06T04:03:30;1.45;;;0.77;;
15553;SDS011;7878;44.632;10.942;2023-08-06T04:05:55;1.85;;;1.00;;
15553;SDS011;7878;44.632;10.942;2023-08-06T04:08:21;1.75;;;0.90;;
15553;SDS011;7878;44.632;10.942;2023-08-06T04:10:53;2.33;;;0.90;;
15553;SDS011;7878;44.632;10.942;2023-08-06T04:13:18;2.40;;;1.00;;
15553;SDS011;7878;44.632;10.942;2023-08-06T04:15:45;3.88;;;0.98;;
15553;SDS011;7878;44.632;10.942;2023-08-06T04:18:12;2.45;;;0.98;;
15553;SDS011;7878;44.632;10.942;2023-08-06T04:20:44;1.92;;;0.90;;
15553;SDS011;7878;44.632;10.942;2023-08-06T04:23:10;1.70;;;1.20;;
15553;SDS011;7878;44.632;10.942;2023-08-06T04:25:37;2.25;;;1.10;;
15553;SDS011;7878;44.632;10.942;2023-08-06T04:28:03;3.90;;;1.35;;
15553;SDS011;7878;44.632;10.942;2023-08-06T04:30:28;2.08;;;1.50;;
15553;SDS011;7878;44.632;10.942;2023-08-06T04:32:56;1.98;;;1.50;;
15553;SDS011;7878;44.632;10.942;2023-08-06T04:35:22;2.60;;;1.33;;
15553;SDS011;7878;44.632;10.942;2023-08-06T04:37:47;2.92;;;1.10;;
15553;SDS011;7878;44.632;10.942;2023-08-06T04:40:13;3.60;;;1.23;;
15553;SDS011;7878;44.632;10.942;2023-08-06T04:42:39;2.67;;;1.05;;
15553;SDS011;7878;44.632;10.942;2023-08-06T04:45:04;1.48;;;1.08;;
15553;SDS011;7878;44.632;10.942;2023-08-06T04:47:30;1.48;;;0.93;;
15553;SDS011;7878;44.632;10.942;2023-08-06T04:49:56;3.65;;;2.25;;
15553;SDS011;7878;44.632;10.942;2023-08-06T04:52:22;4.53;;;1.17;;
15553;SDS011;7878;44.632;10.942;2023-08-06T04:54:47;0.98;;;0.93;;
15553;SDS011;7878;44.632;10.942;2023-08-06T04:57:13;2.58;;;1.10;;
15553;SDS011;7878;44.632;10.942;2023-08-06T04:59:39;2.13;;;1.00;;
15553;SDS011;7878;44.632;10.942;2023-08-06T05:02:04;1.88;;;1.00;;
15553;SDS011;7878;44.632;10.942;2023-08-06T05:04:30;2.20;;;1.15;;
15553;SDS011;7878;44.632;10.942;2023-08-06T05:06:56;1.73;;;1.10;;
15553;SDS011;7878;44.632;10.942;2023-08-06T05:09:21;3.38;;;1.45;;
15553;SDS011;7878;44.632;10.942;2023-08-06T05:11:47;5.45;;;1.48;;
15553;SDS011;7878;44.632;10.942;2023-08-06T05:14:14;2.75;;;1.52;;
15553;SDS011;7878;44.632;10.942;2023-08-06T05:16:40;3.85;;;1.27;;
15553;SDS011;7878;44.632;10.942;2023-08-06T05:19:05;3.92;;;1.33;;
15553;SDS011;7878;44.632;10.942;2023-08-06T05:21:31;2.65;;;1.40;;
15553;SDS011;7878;44.632;10.942;2023-08-06T05:23:56;2.15;;;1.33;;
15553;SDS011;7878;44.632;10.942;2023-08-06T05:26:22;3.58;;;1.30;;
15553;SDS011;7878;44.632;10.942;2023-08-06T05:28:48;1.30;;;1.20;;
15553;SDS011;7878;44.632;10.942;2023-08-06T05:31:13;3.60;;;1.30;;
15553;SDS011;7878;44.632;10.942;2023-08-06T05:33:39;3.25;;;1.40;;
15553;SDS011;7878;44.632;10.942;2023-08-06T05:36:05;6.03;;;1.58;;
15553;SDS011;7878;44.632;10.942;2023-08-06T05:38:30;2.63;;;1.30;;
15553;SDS011;7878;44.632;10.942;2023-08-06T05:40:56;2.55;;;1.13;;
15553;SDS011;7878;44.632;10.942;2023-08-06T05:43:22;3.80;;;1.05;;
15553;SDS011;7878;44.632;10.942;2023-08-06T05:45:51;2.40;;;1.27;;
15553;SDS011;7878;44.632;10.942;2023-08-06T05:48:16;2.78;;;1.35;;
15553;SDS011;7878;44.632;10.942;2023-08-06T05:50:42;4.90;;;1.40;;
15553;SDS011;7878;44.632;10.942;2023-08-06T05:53:08;3.53;;;1.02;;
15553;SDS011;7878;44.632;10.942;2023-08-06T05:55:34;2.88;;;1.27;;
15553;SDS011;7878;44.632;10.942;2023-08-06T05:58:00;1.85;;;1.02;;
15553;SDS011;7878;44.632;10.942;2023-08-06T06:00:26;3.72;;;1.23;;
15553;SDS011;7878;44.632;10.942;2023-08-06T06:02:51;3.95;;;1.30;;
15553;SDS011;7878;44.632;10.942;2023-08-06T06:05:17;2.47;;;1.00;;
15553;SDS011;7878;44.632;10.942;2023-08-06T06:07:43;3.05;;;1.00;;
15553;SDS011;7878;44.632;10.942;2023-08-06T06:10:09;4.28;;;1.08;;
15553;SDS011;7878;44.632;10.942;2023-08-06T06:12:35;2.63;;;1.08;;
15553;SDS011;7878;44.632;10.942;2023-08-06T06:15:00;1.60;;;1.00;;
15553;SDS011;7878;44.632;10.942;2023-08-06T06:17:27;1.73;;;0.98;;
15553;SDS011;7878;44.632;10.942;2023-08-06T06:19:54;8.43;;;1.30;;
15553;SDS011;7878;44.632;10.942;2023-08-06T06:22:20;4.15;;;1.33;;
15553;SDS011;7878;44.632;10.942;2023-08-06T06:24:45;2.30;;;1.45;;
15553;SDS011;7878;44.632;10.942;2023-08-06T06:27:11;2.97;;;1.38;;
15553;SDS011;7878;44.632;10.942;2023-08-06T06:29:37;2.55;;;1.40;;
15553;SDS011;7878;44.632;10.942;2023-08-06T06:32:02;2.80;;;1.85;;
15553;SDS011;7878;44.632;10.942;2023-08-06T06:34:28;4.80;;;1.70;;
15553;SDS011;7878;44.632;10.942;2023-08-06T06:36:54;4.20;;;1.50;;
15553;SDS011;7878;44.632;10.942;2023-08-06T06:39:20;1.90;;;1.52;;
15553;SDS011;7878;44.632;10.942;2023-08-06T06:41:46;2.72;;;1.67;;
15553;SDS011;7878;44.632;10.942;2023-08-06T06:44:12;2.30;;;1.45;;
15553;SDS011;7878;44.632;10.942;2023-08-06T06:46:38;2.20;;;1.60;;
15553;SDS011;7878;44.632;10.942;2023-08-06T06:49:04;4.32;;;1.60;;
15553;SDS011;7878;44.632;10.942;2023-08-06T06:51:30;2.25;;;1.60;;
15553;SDS011;7878;44.632;10.942;2023-08-06T06:53:57;4.35;;;1.70;;
15553;SDS011;7878;44.632;10.942;2023-08-06T06:56:22;1.50;;;1.40;;
15553;SDS011;7878;44.632;10.942;2023-08-06T06:58:48;2.80;;;1.40;;
15553;SDS011;7878;44.632;10.942;2023-08-06T07:01:14;3.17;;;1.35;;
15553;SDS011;7878;44.632;10.942;2023-08-06T07:03:39;2.28;;;1.40;;
15553;SDS011;7878;44.632;10.942;2023-08-06T07:06:06;2.85;;;1.25;;
15553;SDS011;7878;44.632;10.942;2023-08-06T07:08:32;1.65;;;1.20;;
15553;SDS011;7878;44.632;10.942;2023-08-06T07:11:01;2.13;;;1.52;;
15553;SDS011;7878;44.632;10.942;2023-08-06T07:13:28;4.68;;;1.58;;
15553;SDS011;7878;44.632;10.942;2023-08-06T07:15:54;3.05;;;1.30;;
15553;SDS011;7878;44.632;10.942;2023-08-06T07:18:21;3.63;;;1.33;;
15553;SDS011;7878;44.632;10.942;2023-08-06T07:20:50;2.28;;;1.13;;
15553;SDS011;7878;44.632;10.942;2023-08-06T07:23:16;5.65;;;1.60;;
15553;SDS011;7878;44.632;10.942;2023-08-06T07:25:43;2.85;;;1.73;;
15553;SDS011;7878;44.632;10.942;2023-08-06T07:28:09;3.65;;;1.33;;
15553;SDS011;7878;44.632;10.942;2023-08-06T07:30:38;3.10;;;1.50;;
15553;SDS011;7878;44.632;10.942;2023-08-06T07:33:04;4.50;;;1.60;;
15553;SDS011;7878;44.632;10.942;2023-08-06T07:35:30;2.58;;;1.70;;
15553;SDS011;7878;44.632;10.942;2023-08-06T07:37:55;2.92;;;1.50;;
15553;SDS011;7878;44.632;10.942;2023-08-06T07:40:21;3.30;;;1.52;;
15553;SDS011;7878;44.632;10.942;2023-08-06T07:42:47;2.15;;;1.65;;
15553;SDS011;7878;44.632;10.942;2023-08-06T07:45:12;5.05;;;1.55;;
15553;SDS011;7878;44.632;10.942;2023-08-06T07:47:39;5.53;;;1.40;;
15553;SDS011;7878;44.632;10.942;2023-08-06T07:50:04;3.00;;;1.80;;
15553;SDS011;7878;44.632;10.942;2023-08-06T07:52:31;3.00;;;1.50;;
15553;SDS011;7878;44.632;10.942;2023-08-06T07:54:56;3.00;;;1.48;;
15553;SDS011;7878;44.632;10.942;2023-08-06T07:57:22;1.85;;;1.20;;
15553;SDS011;7878;44.632;10.942;2023-08-06T07:59:48;5.32;;;1.50;;
15553;SDS011;7878;44.632;10.942;2023-08-06T08:02:13;2.35;;;1.45;;
15553;SDS011;7878;44.632;10.942;2023-08-06T08:04:39;4.53;;;1.48;;
15553;SDS011;7878;44.632;10.942;2023-08-06T08:07:05;2.70;;;1.33;;
15553;SDS011;7878;44.632;10.942;2023-08-06T08:09:30;1.95;;;1.70;;
15553;SDS011;7878;44.632;10.942;2023-08-06T08:11:56;2.22;;;1.70;;
15553;SDS011;7878;44.632;10.942;2023-08-06T08:14:22;1.60;;;1.20;;
15553;SDS011;7878;44.632;10.942;2023-08-06T08:16:48;3.53;;;1.50;;
15553;SDS011;7878;44.632;10.942;2023-08-06T08:19:14;2.03;;;1.40;;
15553;SDS011;7878;44.632;10.942;2023-08-06T08:21:40;3.95;;;1.30;;
15553;SDS011;7878;44.632;10.942;2023-08-06T08:24:05;1.95;;;1.40;;
15553;SDS011;7878;44.632;10.942;2023-08-06T08:26:31;3.17;;;1.50;;
15553;SDS011;7878;44.632;10.942;2023-08-06T08:28:56;5.88;;;1.40;;
15553;SDS011;7878;44.632;10.942;2023-08-06T08:31:22;3.17;;;1.48;;
15553;SDS011;7878;44.632;10.942;2023-08-06T08:33:48;6.63;;;1.50;;
15553;SDS011;7878;44.632;10.942;2023-08-06T08:36:14;2.40;;;1.55;;
15553;SDS011;7878;44.632;10.942;2023-08-06T08:38:39;5.95;;;1.60;;
15553;SDS011;7878;44.632;10.942;2023-08-06T08:41:05;5.30;;;1.65;;
15553;SDS011;7878;44.632;10.942;2023-08-06T08:43:31;1.98;;;1.40;;
15553;SDS011;7878;44.632;10.942;2023-08-06T08:45:57;5.65;;;1.60;;
15553;SDS011;7878;44.632;10.942;2023-08-06T08:48:25;2.15;;;1.45;;
15553;SDS011;7878;44.632;10.942;2023-08-06T08:50:54;4.53;;;1.52;;
15553;SDS011;7878;44.632;10.942;2023-08-06T08:53:21;5.72;;;1.55;;
15553;SDS011;7878;44.632;10.942;2023-08-06T08:55:48;4.72;;;1.50;;
15553;SDS011;7878;44.632;10.942;2023-08-06T08:58:14;2.40;;;1.50;;
15553;SDS011;7878;44.632;10.942;2023-08-06T09:00:45;2.70;;;1.50;;
15553;SDS011;7878;44.632;10.942;2023-08-06T09:03:13;3.72;;;1.73;;
15553;SDS011;7878;44.632;10.942;2023-08-06T09:05:40;4.95;;;1.88;;
15553;SDS011;7878;44.632;10.942;2023-08-06T09:08:15;3.50;;;2.08;;
15553;SDS011;7878;44.632;10.942;2023-08-06T09:10:44;5.85;;;1.80;;
15553;SDS011;7878;44.632;10.942;2023-08-06T09:13:12;2.83;;;1.38;;
15553;SDS011;7878;44.632;10.942;2023-08-06T09:15:38;5.57;;;1.85;;
15553;SDS011;7878;44.632;10.942;2023-08-06T09:18:11;3.80;;;2.22;;
15553;SDS011;7878;44.632;10.942;2023-08-06T09:20:39;4.22;;;1.75;;
15553;SDS011;7878;44.632;10.942;2023-08-06T09:23:08;3.30;;;1.80;;
15553;SDS011;7878;44.632;10.942;2023-08-06T09:25:36;5.15;;;1.88;;
15553;SDS011;7878;44.632;10.942;2023-08-06T09:28:04;6.93;;;2.00;;
15553;SDS011;7878;44.632;10.942;2023-08-06T09:30:31;5.63;;;1.90;;
15553;SDS011;7878;44.632;10.942;2023-08-06T09:32:58;3.50;;;1.88;;
15553;SDS011;7878;44.632;10.942;2023-08-06T09:35:24;4.38;;;1.90;;
15553;SDS011;7878;44.632;10.942;2023-08-06T09:37:53;4.47;;;2.05;;
15553;SDS011;7878;44.632;10.942;2023-08-06T09:40:25;4.63;;;1.88;;
15553;SDS011;7878;44.632;10.942;2023-08-06T09:42:55;5.68;;;2.17;;
15553;SDS011;7878;44.632;10.942;2023-08-06T09:45:21;3.20;;;1.90;;
15553;SDS011;7878;44.632;10.942;2023-08-06T09:47:48;4.55;;;2.30;;
15553;SDS011;7878;44.632;10.942;2023-08-06T09:50:18;5.13;;;2.20;;
15553;SDS011;7878;44.632;10.942;2023-08-06T09:52:45;6.25;;;2.13;;
15553;SDS011;7878;44.632;10.942;2023-08-06T09:55:12;7.35;;;2.38;;
15553;SDS011;7878;44.632;10.942;2023-08-06T09:57:41;3.17;;;1.75;;
15553;SDS011;7878;44.632;10.942;2023-08-06T10:00:08;8.98;;;2.10;;
15553;SDS011;7878;44.632;10.942;2023-08-06T10:02:39;5.40;;;1.85;;
15553;SDS011;7878;44.632;10.942;2023-08-06T10:05:06;6.38;;;2.00;;
15553;SDS011;7878;44.632;10.942;2023-08-06T10:07:32;3.35;;;1.60;;
15553;SDS011;7878;44.632;10.942;2023-08-06T10:09:59;4.55;;;2.08;;
15553;SDS011;7878;44.632;10.942;2023-08-06T10:12:26;6.25;;;1.65;;
15553;SDS011;7878;44.632;10.942;2023-08-06T10:14:57;3.60;;;1.75;;
15553;SDS011;7878;44.632;10.942;2023-08-06T10:17:26;12.80;;;2.60;;
15553;SDS011;7878;44.632;10.942;2023-08-06T10:19:52;5.40;;;1.88;;
15553;SDS011;7878;44.632;10.942;2023-08-06T10:22:20;5.75;;;2.03;;
15553;SDS011;7878;44.632;10.942;2023-08-06T10:24:50;3.55;;;2.00;;
15553;SDS011;7878;44.632;10.942;2023-08-06T10:27:35;1.85;;;1.75;;
15553;SDS011;7878;44.632;10.942;2023-08-06T10:30:24;2.35;;;1.70;;
15553;SDS011;7878;44.632;10.942;2023-08-06T10:32:52;5.05;;;1.77;;
15553;SDS011;7878;44.632;10.942;2023-08-06T10:35:29;7.40;;;1.95;;
15553;SDS011;7878;44.632;10.942;2023-08-06T10:38:10;5.68;;;2.25;;
15553;SDS011;7878;44.632;10.942;2023-08-06T10:41:00;4.65;;;1.80;;
15553;SDS011;7878;44.632;10.942;2023-08-06T10:43:27;4.13;;;2.03;;
15553;SDS011;7878;44.632;10.942;2023-08-06T10:45:55;2.42;;;1.90;;
15553;SDS011;7878;44.632;10.942;2023-08-06T10:50:59;7.50;;;1.80;;
15553;SDS011;7878;44.632;10.942;2023-08-06T10:53:26;1.73;;;1.30;;
15553;SDS011;7878;44.632;10.942;2023-08-06T10:55:52;1.83;;;1.45;;
15553;SDS011;7878;44.632;10.942;2023-08-06T10:58:18;3.17;;;1.40;;
15553;SDS011;7878;44.632;10.942;2023-08-06T11:00:43;2.80;;;1.58;;
15553;SDS011;7878;44.632;10.942;2023-08-06T11:03:09;3.65;;;1.75;;
15553;SDS011;7878;44.632;10.942;2023-08-06T11:05:41;1.85;;;1.30;;
15553;SDS011;7878;44.632;10.942;2023-08-06T11:08:22;1.58;;;1.35;;
15553;SDS011;7878;44.632;10.942;2023-08-06T11:10:51;3.17;;;1.50;;
15553;SDS011;7878;44.632;10.942;2023-08-06T11:13:17;1.63;;;1.38;;
15553;SDS011;7878;44.632;10.942;2023-08-06T11:15:44;4.10;;;1.63;;
15553;SDS011;7878;44.632;10.942;2023-08-06T11:18:10;1.83;;;1.40;;
15553;SDS011;7878;44.632;10.942;2023-08-06T11:20:36;1.60;;;1.50;;
15553;SDS011;7878;44.632;10.942;2023-08-06T11:23:02;2.45;;;1.40;;
15553;SDS011;7878;44.632;10.942;2023-08-06T11:25:28;3.30;;;1.33;;
15553;SDS011;7878;44.632;10.942;2023-08-06T11:27:54;1.75;;;1.58;;
15553;SDS011;7878;44.632;10.942;2023-08-06T11:30:19;1.52;;;1.38;;
15553;SDS011;7878;44.632;10.942;2023-08-06T11:32:49;1.58;;;1.42;;
15553;SDS011;7878;44.632;10.942;2023-08-06T11:35:15;1.73;;;1.52;;
15553;SDS011;7878;44.632;10.942;2023-08-06T11:37:44;2.75;;;1.80;;
15553;SDS011;7878;44.632;10.942;2023-08-06T11:40:16;2.13;;;1.60;;
15553;SDS011;7878;44.632;10.942;2023-08-06T11:42:42;1.92;;;1.50;;
15553;SDS011;7878;44.632;10.942;2023-08-06T11:45:08;1.88;;;1.60;;
15553;SDS011;7878;44.632;10.942;2023-08-06T11:47:34;1.83;;;1.70;;
15553;SDS011;7878;44.632;10.942;2023-08-06T11:50:05;1.85;;;1.48;;
15553;SDS011;7878;44.632;10.942;2023-08-06T11:52:31;1.70;;;1.50;;
15553;SDS011;7878;44.632;10.942;2023-08-06T11:55:04;5.53;;;1.80;;
15553;SDS011;7878;44.632;10.942;2023-08-06T11:57:37;1.67;;;1.58;;
15553;SDS011;7878;44.632;10.942;2023-08-06T12:00:09;1.70;;;1.60;;
15553;SDS011;7878;44.632;10.942;2023-08-06T12:02:36;4.88;;;1.48;;
15553;SDS011;7878;44.632;10.942;2023-08-06T12:07:36;1.92;;;1.58;;
15553;SDS011;7878;44.632;10.942;2023-08-06T12:10:04;2.85;;;1.55;;
15553;SDS011;7878;44.632;10.942;2023-08-06T12:12:30;3.03;;;1.48;;
15553;SDS011;7878;44.632;10.942;2023-08-06T12:14:56;1.60;;;1.50;;
15553;SDS011;7878;44.632;10.942;2023-08-06T12:17:23;3.08;;;1.50;;
15553;SDS011;7878;44.632;10.942;2023-08-06T12:19:49;3.42;;;1.50;;
15553;SDS011;7878;44.632;10.942;2023-08-06T12:22:15;1.63;;;1.40;;
15553;SDS011;7878;44.632;10.942;2023-08-06T12:24:41;2.22;;;1.50;;
15553;SDS011;7878;44.632;10.942;2023-08-06T12:27:08;2.65;;;1.25;;
15553;SDS011;7878;44.632;10.942;2023-08-06T12:29:34;2.08;;;1.52;;
15553;SDS011;7878;44.632;10.942;2023-08-06T12:32:00;4.03;;;1.45;;
15553;SDS011;7878;44.632;10.942;2023-08-06T12:34:26;2.40;;;1.55;;
15553;SDS011;7878;44.632;10.942;2023-08-06T12:36:51;1.40;;;1.30;;
15553;SDS011;7878;44.632;10.942;2023-08-06T12:39:17;1.70;;;1.60;;
15553;SDS011;7878;44.632;10.942;2023-08-06T12:41:43;1.50;;;1.40;;
15553;SDS011;7878;44.632;10.942;2023-08-06T12:44:11;2.00;;;1.70;;
15553;SDS011;7878;44.632;10.942;2023-08-06T12:46:37;3.25;;;1.73;;
15553;SDS011;7878;44.632;10.942;2023-08-06T12:49:03;1.40;;;1.30;;
15553;SDS011;7878;44.632;10.942;2023-08-06T12:51:28;1.95;;;1.80;;
15553;SDS011;7878;44.632;10.942;2023-08-06T12:53:54;1.70;;;1.42;;
15553;SDS011;7878;44.632;10.942;2023-08-06T12:56:20;2.38;;;1.40;;
15553;SDS011;7878;44.632;10.942;2023-08-06T12:58:45;3.28;;;1.50;;
15553;SDS011;7878;44.632;10.942;2023-08-06T13:01:11;1.60;;;1.50;;
15553;SDS011;7878;44.632;10.942;2023-08-06T13:03:37;1.50;;;1.40;;
15553;SDS011;7878;44.632;10.942;2023-08-06T13:06:02;1.75;;;1.60;;
15553;SDS011;7878;44.632;10.942;2023-08-06T13:08:28;1.73;;;1.30;;
15553;SDS011;7878;44.632;10.942;2023-08-06T13:10:54;1.65;;;1.55;;
15553;SDS011;7878;44.632;10.942;2023-08-06T13:13:19;1.33;;;1.23;;
15553;SDS011;7878;44.632;10.942;2023-08-06T13:15:45;1.70;;;1.60;;
15553;SDS011;7878;44.632;10.942;2023-08-06T13:18:11;2.63;;;1.50;;
15553;SDS011;7878;44.632;10.942;2023-08-06T13:20:38;1.80;;;1.55;;
15553;SDS011;7878;44.632;10.942;2023-08-06T13:23:05;2.58;;;1.38;;
15553;SDS011;7878;44.632;10.942;2023-08-06T13:25:31;2.03;;;1.60;;
15553;SDS011;7878;44.632;10.942;2023-08-06T13:28:01;1.98;;;1.60;;
15553;SDS011;7878;44.632;10.942;2023-08-06T13:30:29;2.50;;;1.60;;
15553;SDS011;7878;44.632;10.942;2023-08-06T13:32:55;2.92;;;1.77;;
15553;SDS011;7878;44.632;10.942;2023-08-06T13:35:21;1.52;;;1.40;;
15553;SDS011;7878;44.632;10.942;2023-08-06T13:37:48;1.65;;;1.33;;
15553;SDS011;7878;44.632;10.942;2023-08-06T13:40:14;2.05;;;1.83;;
15553;SDS011;7878;44.632;10.942;2023-08-06T13:42:40;2.80;;;1.40;;
15553;SDS011;7878;44.632;10.942;2023-08-06T13:45:06;1.67;;;1.35;;
15553;SDS011;7878;44.632;10.942;2023-08-06T13:47:32;2.10;;;1.60;;
15553;SDS011;7878;44.632;10.942;2023-08-06T13:49:58;1.40;;;1.30;;
15553;SDS011;7878;44.632;10.942;2023-08-06T13:52:25;2.17;;;2.00;;
15553;SDS011;7878;44.632;10.942;2023-08-06T13:54:52;1.75;;;1.65;;
15553;SDS011;7878;44.632;10.942;2023-08-06T13:57:18;1.50;;;1.40;;
15553;SDS011;7878;44.632;10.942;2023-08-06T13:59:43;1.50;;;1.40;;
15553;SDS011;7878;44.632;10.942;2023-08-06T14:02:10;3.83;;;1.52;;
15553;SDS011;7878;44.632;10.942;2023-08-06T14:04:35;1.73;;;1.48;;
15553;SDS011;7878;44.632;10.942;2023-08-06T14:07:02;1.83;;;1.67;;
15553;SDS011;7878;44.632;10.942;2023-08-06T14:09:29;1.52;;;1.42;;
15553;SDS011;7878;44.632;10.942;2023-08-06T14:11:54;1.70;;;1.52;;
15553;SDS011;7878;44.632;10.942;2023-08-06T14:14:20;2.13;;;1.58;;
15553;SDS011;7878;44.632;10.942;2023-08-06T14:16:54;2.15;;;1.50;;
15553;SDS011;7878;44.632;10.942;2023-08-06T14:19:20;1.95;;;1.42;;
15553;SDS011;7878;44.632;10.942;2023-08-06T14:21:46;2.58;;;1.48;;
15553;SDS011;7878;44.632;10.942;2023-08-06T14:24:11;2.28;;;1.50;;
15553;SDS011;7878;44.632;10.942;2023-08-06T14:26:37;1.80;;;1.35;;
15553;SDS011;7878;44.632;10.942;2023-08-06T14:29:03;2.00;;;1.80;;
15553;SDS011;7878;44.632;10.942;2023-08-06T14:31:29;4.43;;;1.80;;
15553;SDS011;7878;44.632;10.942;2023-08-06T14:33:55;1.40;;;1.30;;
15553;SDS011;7878;44.632;10.942;2023-08-06T14:36:21;1.75;;;1.40;;
15553;SDS011;7878;44.632;10.942;2023-08-06T14:38:47;3.10;;;1.23;;
15553;SDS011;7878;44.632;10.942;2023-08-06T14:41:12;2.97;;;1.60;;
15553;SDS011;7878;44.632;10.942;2023-08-06T14:43:38;1.70;;;1.48;;
15553;SDS011;7878;44.632;10.942;2023-08-06T14:46:04;3.90;;;1.70;;
15553;SDS011;7878;44.632;10.942;2023-08-06T14:48:32;1.50;;;1.40;;
15553;SDS011;7878;44.632;10.942;2023-08-06T14:50:58;1.88;;;1.67;;